Kezdőlap
METAR-TAF:

METAR-TAF

Repülőterek :

Quentin Aanenson Field

Luverne, Minnesota, Amerikai Egyesült Államok

földrajzi szélesség: 43-37-16N, földrajzi hosszúság: 096-12-58W, magasság: 436 m

Jelenlegi meteorológiai megfigyelések

A jelentés 8 perccel ezelõtt készült, 07:35 UTC
Kelet-délkeleti szél 15 kt széllökések: 20 kt
Hőmérséklet 10°C
Páratartalom 87%
Légköri nyomás 996 hPa
Látótávolság: 11.3 km
Borult 500 lábon
enyhe esõ

METAR: KLYV 220735Z AUTO 11015G20KT 7SM -RA OVC005 10/08 A2940 RMK AO2

Idő: 02:43 (07:43 UTC)


TAF: hiányzik

Meteorológiai megfigyelések és előrejelzések több, mint 4000 repülőtéren (METAR és TAF jelentéseket).

A térképen piros és sárga pontok jelzik az elérhető meteorológiai állomásokat.

Mozgassa az egeret a pont fölött, hogy megjelenjen az állomás neve.

Azután kattintson az időjárási megfigyelések és előrejelzések megtekintéséhez.

A térkép megváltoztatása: kattintson a fekete keresztel jelölt zöld gombra ráközelítéshez, a vonallal jelölt zöld gombra távolításhoz, vagy a zöld nyilakra a szomszédos térképek eléréséhez.


METAR-TAF: